createdAt,value
2023-03-11T01:13:47.121Z,11.15
2023-03-11T01:24:11.478Z,11.30
2023-03-11T01:27:34.756Z,11.27
2023-03-11T03:12:20.528Z,11.23
2023-03-11T03:15:04.166Z,11.28
2023-03-11T03:17:44.286Z,11.39
2023-03-11T03:21:39.536Z,11.29
2023-03-11T03:27:01.083Z,11.40
2023-03-11T03:49:38.863Z,11.22
2023-03-11T03:56:22.467Z,11.06
2023-03-11T04:00:21.881Z,11.14
2023-03-11T04:02:57.237Z,11.29
2023-03-11T04:05:28.554Z,11.01
2023-03-11T04:07:57.575Z,10.66
2023-03-11T04:28:54.928Z,11.14
2023-03-11T04:31:27.975Z,11.40
2023-03-11T04:45:26.179Z,11.10
2023-03-11T04:47:53.595Z,10.92
2023-03-11T04:50:21.311Z,10.74
2023-03-11T04:52:49.552Z,10.99
2023-03-11T04:55:21.940Z,10.76
2023-03-11T04:57:55.853Z,10.90
2023-03-11T05:00:30.610Z,11.29
2023-03-11T05:03:01.411Z,11.13
2023-03-11T05:06:48.214Z,11.31
2023-03-11T05:09:19.661Z,11.08
2023-03-11T05:11:49.207Z,11.17
2023-03-11T05:14:16.544Z,11.06
2023-03-11T05:19:42.887Z,10.93
2023-03-11T05:22:10.102Z,11.11
2023-03-11T05:24:37.507Z,11.29
2023-03-11T05:27:05.239Z,11.49
2023-03-11T05:29:32.731Z,11.46
2023-03-11T05:31:59.815Z,11.49
2023-03-11T05:34:29.782Z,10.96
2023-03-11T05:36:56.890Z,11.50
2023-03-11T05:39:24.336Z,10.73
2023-03-11T05:41:56.830Z,11.01
2023-03-11T05:44:24.962Z,11.06
2023-03-11T05:46:55.076Z,10.95
2023-03-11T05:49:27.479Z,11.18
2023-03-11T05:51:56.140Z,11.13
2023-03-11T05:54:24.448Z,11.45
2023-03-11T05:56:52.314Z,11.31
2023-03-11T05:59:37.179Z,11.22
2023-03-11T06:02:19.543Z,11.67
2023-03-11T06:04:55.324Z,11.82
2023-03-11T06:07:28.390Z,11.38
2023-03-11T06:12:58.094Z,11.50
2023-03-11T06:18:32.083Z,11.91
2023-03-11T06:21:18.387Z,11.76
2023-03-11T06:24:00.412Z,12.07
2023-03-11T06:26:32.868Z,12.42
2023-03-11T06:28:59.945Z,12.45
2023-03-11T06:31:28.887Z,12.22
2023-03-11T06:34:03.098Z,12.00
2023-03-11T06:36:30.415Z,12.19
2023-03-11T06:38:57.125Z,12.05
2023-03-11T06:41:24.666Z,11.82
2023-03-11T06:43:51.807Z,11.68
2023-03-11T06:46:21.909Z,11.82
2023-03-11T06:48:52.632Z,12.21
2023-03-11T06:51:20.965Z,12.27
2023-03-11T06:53:52.644Z,12.35
2023-03-11T07:13:06.873Z,14.72
2023-03-11T07:15:33.805Z,14.24
2023-03-11T07:18:00.567Z,14.64
2023-03-11T07:20:27.945Z,14.46
2023-03-11T07:22:54.855Z,14.10
2023-03-11T07:25:21.741Z,13.89
2023-03-11T07:27:49.980Z,13.77
2023-03-11T07:30:20.613Z,14.76
2023-03-11T07:32:49.685Z,14.59
2023-03-11T07:35:53.936Z,15.35
2023-03-11T08:13:03.876Z,17.48
2023-03-11T08:31:42.173Z,17.09
2023-03-11T08:34:28.048Z,17.33
2023-03-11T08:36:55.524Z,17.23
2023-03-11T08:39:24.064Z,17.40
2023-03-11T08:42:08.237Z,15.98
2023-03-11T08:45:24.668Z,15.82
2023-03-11T08:48:41.200Z,16.13
2023-03-11T08:55:43.913Z,15.69
2023-03-11T08:58:33.928Z,16.26
2023-03-11T09:01:07.194Z,16.81
2023-03-11T09:04:05.210Z,17.21
2023-03-11T10:22:11.901Z,15.25
2023-03-11T10:25:16.091Z,15.37
2023-03-11T10:31:34.880Z,15.30
2023-03-11T10:34:19.063Z,15.12
2023-03-11T10:57:18.242Z,14.90
2023-03-11T11:13:44.843Z,16.19
2023-03-11T11:16:37.637Z,16.39
2023-03-11T11:24:25.570Z,16.94
2023-03-11T11:29:35.085Z,16.88
2023-03-11T11:32:30.646Z,17.30
2023-03-11T11:35:11.071Z,16.96
2023-03-11T11:37:42.227Z,16.78
2023-03-11T11:42:53.113Z,16.95
2023-03-11T11:48:21.720Z,16.42
2023-03-11T11:50:58.997Z,16.76
2023-03-11T11:53:40.185Z,16.72
2023-03-11T11:56:07.040Z,16.67
2023-03-11T11:58:35.243Z,17.03
2023-03-11T12:01:23.388Z,17.09
2023-03-11T12:06:35.107Z,17.13
2023-03-11T12:09:40.210Z,16.85
2023-03-11T12:12:28.510Z,16.81
2023-03-11T12:15:20.927Z,16.99
2023-03-11T12:17:50.935Z,16.83
2023-03-11T12:20:41.770Z,16.76
2023-03-11T12:23:35.622Z,16.79
2023-03-11T12:26:33.901Z,17.13
2023-03-11T12:29:21.169Z,17.09
2023-03-11T12:31:48.484Z,17.19
2023-03-11T12:34:19.965Z,17.01
2023-03-11T12:36:48.520Z,16.69
2023-03-11T12:39:28.726Z,16.77
2023-03-11T12:42:11.408Z,16.85
2023-03-11T12:44:39.666Z,16.83
2023-03-11T12:47:09.908Z,16.79
2023-03-11T12:49:38.413Z,16.80
2023-03-11T12:52:14.037Z,16.86
2023-03-11T12:54:47.077Z,16.87
2023-03-11T12:57:19.757Z,16.68
2023-03-11T13:00:11.148Z,16.62
2023-03-11T13:03:02.469Z,16.78
2023-03-11T13:05:58.694Z,16.73
2023-03-11T13:08:29.690Z,16.73
2023-03-11T13:10:56.586Z,16.71
2023-03-11T13:13:39.493Z,16.52
2023-03-11T13:16:15.286Z,16.38
2023-03-11T13:18:44.973Z,16.39
2023-03-11T13:21:32.790Z,16.43
2023-03-11T13:24:30.365Z,16.40
2023-03-11T13:27:00.037Z,16.35
2023-03-11T13:30:05.151Z,16.32
2023-03-11T13:32:50.356Z,16.80
2023-03-11T13:35:35.777Z,16.24
2023-03-11T13:38:21.218Z,16.20
2023-03-11T13:40:48.390Z,16.49
2023-03-11T13:43:19.331Z,16.28
2023-03-11T13:46:01.142Z,16.27
2023-03-11T13:48:45.376Z,16.23
2023-03-11T13:51:45.771Z,16.38
2023-03-11T13:54:43.777Z,16.05
2023-03-11T13:57:40.988Z,16.16
2023-03-11T14:00:17.203Z,15.93
2023-03-11T14:02:47.945Z,15.95
2023-03-11T14:05:24.347Z,16.14
2023-03-11T14:07:54.846Z,16.05
2023-03-11T14:10:30.599Z,15.73
2023-03-11T14:13:15.826Z,15.58
2023-03-11T14:16:05.837Z,15.49
2023-03-11T14:18:36.067Z,15.26
2023-03-11T14:21:06.750Z,15.18
2023-03-11T14:23:41.686Z,15.08
2023-03-11T14:26:35.060Z,14.99
2023-03-11T14:29:09.209Z,14.86
2023-03-11T14:31:48.805Z,14.90
2023-03-11T14:34:28.210Z,14.82
2023-03-11T14:37:08.058Z,14.91
2023-03-11T14:39:51.010Z,14.72
2023-03-11T14:42:30.170Z,14.86
2023-03-11T14:45:11.341Z,14.33
2023-03-11T14:48:10.679Z,14.12
2023-03-11T14:50:49.830Z,13.97
2023-03-11T14:53:34.514Z,14.00
2023-03-11T14:56:07.984Z,13.82
2023-03-11T14:58:40.066Z,13.96
2023-03-11T15:01:26.415Z,13.86
2023-03-11T15:04:27.552Z,14.18
2023-03-11T15:06:55.837Z,14.11
2023-03-11T15:09:27.083Z,13.86
2023-03-11T15:12:01.915Z,13.87
2023-03-11T15:14:41.068Z,14.09
2023-03-11T15:17:39.861Z,14.21
2023-03-11T15:20:41.072Z,13.70
2023-03-11T15:23:21.823Z,13.01
2023-03-11T15:25:50.629Z,13.21
2023-03-11T15:28:22.193Z,12.93
2023-03-11T15:30:49.389Z,12.86
2023-03-11T15:33:32.276Z,13.12
2023-03-11T15:35:59.477Z,13.16
2023-03-11T15:38:28.531Z,13.40
2023-03-11T15:41:01.427Z,13.52
2023-03-11T15:43:30.813Z,13.53
2023-03-11T15:46:00.210Z,13.47
2023-03-11T15:48:29.262Z,13.17
2023-03-11T15:50:58.428Z,13.61
2023-03-11T15:53:27.620Z,13.29
2023-03-11T15:56:06.666Z,13.25
2023-03-11T15:58:34.523Z,12.86
2023-03-11T16:01:01.555Z,13.20
2023-03-11T16:03:30.923Z,12.97
2023-03-11T16:05:58.008Z,12.87
2023-03-11T16:08:24.917Z,12.61
2023-03-11T16:10:51.863Z,12.74
2023-03-11T16:13:18.732Z,12.82
2023-03-11T16:15:49.415Z,12.72
2023-03-11T16:18:16.515Z,12.73
2023-03-11T16:20:48.040Z,12.81
2023-03-11T16:23:22.391Z,12.76
2023-03-11T16:25:51.282Z,12.85
2023-03-11T16:28:18.118Z,12.84
2023-03-11T16:30:45.081Z,13.09
2023-03-11T16:33:12.151Z,12.65
2023-03-11T16:35:38.948Z,12.94
2023-03-11T16:38:07.960Z,13.11
2023-03-11T16:40:35.202Z,12.62
2023-03-11T16:43:08.892Z,12.66
2023-03-11T16:45:36.234Z,12.85
2023-03-11T16:48:03.853Z,12.79
2023-03-11T16:50:30.945Z,12.59
2023-03-11T16:52:58.930Z,12.16
2023-03-11T16:55:26.967Z,12.04
2023-03-11T16:57:55.098Z,11.66
2023-03-11T17:00:22.259Z,11.66
2023-03-11T17:02:49.018Z,11.11
2023-03-11T17:05:18.774Z,11.23
2023-03-11T17:07:45.831Z,11.14
2023-03-11T17:10:13.120Z,11.23
2023-03-11T17:12:40.870Z,11.10
2023-03-11T17:15:08.577Z,11.15
2023-03-11T17:17:35.603Z,11.30
2023-03-11T17:20:03.171Z,11.18
2023-03-11T17:22:30.504Z,11.25
2023-03-11T17:24:57.254Z,11.43
2023-03-11T17:27:24.534Z,11.28
2023-03-11T17:29:51.851Z,11.31
2023-03-11T17:32:19.982Z,11.16
2023-03-11T17:34:50.115Z,11.25
2023-03-11T17:37:17.704Z,11.21
2023-03-11T17:39:44.811Z,11.34
2023-03-11T17:42:11.678Z,11.29
2023-03-11T17:44:51.100Z,11.26
2023-03-11T17:47:20.149Z,11.35
2023-03-11T17:49:49.562Z,11.07
2023-03-11T17:52:16.409Z,11.20
2023-03-11T17:54:45.639Z,11.40
2023-03-11T17:57:17.332Z,11.23
2023-03-11T17:59:44.032Z,11.22
2023-03-11T18:02:14.402Z,11.20
2023-03-11T18:04:43.553Z,11.25
2023-03-11T18:07:10.307Z,11.58
2023-03-11T18:09:37.341Z,11.37
2023-03-11T18:12:05.519Z,11.25
2023-03-11T18:14:32.920Z,11.16
2023-03-11T18:16:59.802Z,10.87
2023-03-11T18:19:26.830Z,10.94
2023-03-11T18:21:53.649Z,10.85
2023-03-11T18:24:20.591Z,10.55
2023-03-11T18:26:47.604Z,10.71
2023-03-11T18:29:16.750Z,10.43
2023-03-11T18:31:43.823Z,10.28
2023-03-11T18:36:58.060Z,10.00
2023-03-11T18:39:29.214Z,10.02
2023-03-11T18:42:03.153Z,9.94
2023-03-11T18:44:30.175Z,9.84
2023-03-11T18:47:01.290Z,9.90
2023-03-11T18:49:29.170Z,10.14
2023-03-11T18:51:56.054Z,9.60
2023-03-11T18:54:24.115Z,9.68
2023-03-11T18:56:58.280Z,9.59
2023-03-11T18:59:27.937Z,9.40
2023-03-11T19:01:58.099Z,9.50
2023-03-11T19:04:29.165Z,9.47
2023-03-11T19:06:58.027Z,9.32
2023-03-11T19:09:24.798Z,9.18
2023-03-11T19:11:54.896Z,9.38
2023-03-11T19:14:22.346Z,9.28
2023-03-11T19:16:49.541Z,9.18
2023-03-11T19:19:17.816Z,9.11
2023-03-11T19:21:45.707Z,9.04
2023-03-11T19:24:17.035Z,8.84
2023-03-11T19:26:48.261Z,8.90
2023-03-11T19:29:18.133Z,8.95
2023-03-11T19:31:45.867Z,8.90
2023-03-11T19:34:13.264Z,8.63
2023-03-11T19:36:40.142Z,8.95
2023-03-11T19:39:11.809Z,8.82
2023-03-11T19:41:38.904Z,8.66
2023-03-11T19:44:06.393Z,8.52
2023-03-11T19:46:34.952Z,8.47
2023-03-11T19:49:03.120Z,8.65
2023-03-11T19:51:51.318Z,8.60
2023-03-11T19:54:24.054Z,8.52
2023-03-11T19:56:51.021Z,8.51
2023-03-11T19:59:17.853Z,8.49
2023-03-11T20:01:45.279Z,8.37
2023-03-11T20:04:12.729Z,8.41
2023-03-11T20:06:39.669Z,8.35
2023-03-11T20:09:07.382Z,8.28
2023-03-11T20:11:37.992Z,8.15
2023-03-11T20:14:09.408Z,8.09
2023-03-11T20:16:36.871Z,8.04
2023-03-11T20:19:04.190Z,8.01
2023-03-11T20:21:31.357Z,8.05
2023-03-11T20:23:58.661Z,7.70
2023-03-11T20:26:26.798Z,7.66
2023-03-11T20:28:57.130Z,7.70
2023-03-11T20:31:25.578Z,7.68
2023-03-11T20:33:53.628Z,7.52
2023-03-11T20:36:26.720Z,7.52
2023-03-11T20:38:57.371Z,7.46
2023-03-11T20:41:25.798Z,7.24
2023-03-11T20:44:00.960Z,7.07
2023-03-11T20:49:12.141Z,7.02
2023-03-11T20:51:41.550Z,6.99
2023-03-11T20:54:08.955Z,6.95
2023-03-11T20:56:38.012Z,6.84
2023-03-11T20:59:07.666Z,6.68
2023-03-11T21:01:35.672Z,6.74
2023-03-11T21:04:24.348Z,6.57
2023-03-11T21:06:57.656Z,6.49
2023-03-11T21:09:25.151Z,6.24
2023-03-11T21:11:52.901Z,6.58
2023-03-11T21:14:19.775Z,6.42
2023-03-11T21:16:47.299Z,6.32
2023-03-11T21:19:17.706Z,6.29
2023-03-11T21:21:55.889Z,6.34
2023-03-11T21:24:34.792Z,5.98
2023-03-11T21:27:06.761Z,6.18
2023-03-11T21:29:36.091Z,6.13
2023-03-11T21:34:58.415Z,6.06
2023-03-11T21:37:30.420Z,6.39
2023-03-11T21:39:57.544Z,6.38
2023-03-11T21:42:25.012Z,6.66
2023-03-11T21:45:03.563Z,6.69
2023-03-11T21:47:30.505Z,6.71
2023-03-11T21:49:59.286Z,6.59
2023-03-11T21:52:26.995Z,6.87
2023-03-11T21:55:12.604Z,6.79
2023-03-11T21:57:44.252Z,6.71
2023-03-11T22:00:37.453Z,7.00
2023-03-11T22:03:05.929Z,7.31
2023-03-11T22:05:33.172Z,7.11
2023-03-11T22:08:01.238Z,7.22
2023-03-11T22:10:53.562Z,7.11
2023-03-11T22:13:30.142Z,7.20
2023-03-11T22:16:08.692Z,6.95
2023-03-11T22:18:37.853Z,6.98
2023-03-11T22:21:09.272Z,7.04
2023-03-11T22:23:39.122Z,6.93
2023-03-11T22:26:11.575Z,7.01
2023-03-11T22:28:38.903Z,6.81
2023-03-11T22:31:16.180Z,7.06
2023-03-11T22:33:43.385Z,7.25
2023-03-11T22:36:10.571Z,7.12
2023-03-11T22:38:40.631Z,7.04
2023-03-11T22:41:08.809Z,6.90
2023-03-11T22:43:36.340Z,7.19
2023-03-11T22:46:04.941Z,7.27
2023-03-11T22:48:33.187Z,7.50
2023-03-11T22:51:00.408Z,7.37
2023-03-11T22:53:27.284Z,7.20
2023-03-11T22:55:54.507Z,7.14
2023-03-11T22:58:21.540Z,7.49
2023-03-11T23:00:48.938Z,7.70
2023-03-11T23:03:16.118Z,8.18
2023-03-11T23:05:43.414Z,7.66
2023-03-11T23:08:12.237Z,7.42
2023-03-11T23:10:44.473Z,7.41
2023-03-11T23:13:11.846Z,7.39
2023-03-11T23:15:42.000Z,7.07
2023-03-11T23:18:09.683Z,7.00
2023-03-11T23:20:38.308Z,7.44
2023-03-11T23:23:06.093Z,7.24
2023-03-11T23:25:33.970Z,7.38
2023-03-11T23:28:03.150Z,7.37
2023-03-11T23:30:30.378Z,7.20
2023-03-11T23:32:58.261Z,7.20
2023-03-11T23:35:26.532Z,7.30
2023-03-11T23:37:53.791Z,7.19
2023-03-11T23:40:21.254Z,7.48
2023-03-11T23:42:48.531Z,7.71
2023-03-11T23:45:15.779Z,7.62
2023-03-11T23:47:42.812Z,7.54
2023-03-11T23:50:10.272Z,7.27
2023-03-11T23:52:37.351Z,7.28
2023-03-11T23:55:04.585Z,7.41
2023-03-11T23:57:31.891Z,7.33
2023-03-11T23:59:58.760Z,7.19
